Time;durP1;ratioP1;P1;durP2;ratioP2;P2;SDS_P1;SDS_P2;PMS_P1;PMS_P2;Temp;Humidity;BMP_temperature;BMP_pressure;BME280_temperature;BME280_humidity;BME280_pressure;Samples;Min_cycle;Max_cycle;Signal;HPM_P1;HPM_P2
2024/01/05 00:00:57;;;;;;;5.47;1.75;;;;;;;7.60;54.21;99709.53;4956955;28;20062;-87
2024/01/05 00:03:25;;;;;;;5.78;1.77;;;;;;;7.61;54.05;99713.94;4950700;28;20086;-87
2024/01/05 00:05:54;;;;;;;5.20;1.83;;;;;;;7.61;54.46;99711.22;4954131;28;20042;-86
2024/01/05 00:08:22;;;;;;;6.00;2.20;;;;;;;7.58;54.67;99693.34;4940681;29;20047;-86
2024/01/05 00:10:52;;;;;;;8.70;1.90;;;;;;;7.60;54.41;99699.47;4973390;28;20042;-86
2024/01/05 00:13:20;;;;;;;4.85;1.70;;;;;;;7.61;54.02;99694.88;4972529;28;20041;-86
2024/01/05 00:15:48;;;;;;;6.60;1.83;;;;;;;7.58;54.48;99691.47;4970917;28;20039;-86
2024/01/05 00:18:16;;;;;;;5.55;1.85;;;;;;;7.59;54.30;99676.00;4961151;28;20062;-86
2024/01/05 00:20:44;;;;;;;6.70;1.90;;;;;;;7.58;54.25;99664.25;4950791;28;20038;-86
2024/01/05 00:23:15;;;;;;;5.15;1.70;;;;;;;7.62;54.56;99655.75;4947386;29;20134;-86
2024/01/05 00:25:44;;;;;;;7.13;1.70;;;;;;;7.58;54.34;99653.34;4964709;28;20575;-87
2024/01/05 00:28:14;;;;;;;7.88;1.60;;;;;;;7.62;54.41;99653.91;4972447;28;20121;-85
2024/01/05 00:30:42;;;;;;;4.70;1.60;;;;;;;7.58;54.25;99647.91;4952549;28;20043;-87
2024/01/05 00:33:10;;;;;;;6.68;1.80;;;;;;;7.57;54.67;99648.91;4968728;28;20063;-87
2024/01/05 00:35:39;;;;;;;5.50;1.60;;;;;;;7.62;54.46;99653.03;4968945;28;20069;-86
2024/01/05 00:38:07;;;;;;;6.50;1.67;;;;;;;7.60;54.14;99649.63;4954678;28;20046;-86
2024/01/05 00:40:35;;;;;;;5.57;1.60;;;;;;;7.60;54.65;99645.00;4957311;28;25598;-86
2024/01/05 00:43:04;;;;;;;9.55;2.05;;;;;;;7.62;54.64;99648.47;4955756;28;20043;-86
2024/01/05 00:45:33;;;;;;;6.72;1.80;;;;;;;7.63;54.43;99638.44;4965297;28;20498;-86
2024/01/05 00:48:01;;;;;;;5.28;1.83;;;;;;;7.61;54.42;99638.56;4951105;28;20047;-86
2024/01/05 00:50:30;;;;;;;9.38;1.90;;;;;;;7.60;54.51;99631.41;4951349;28;20098;-86
2024/01/05 00:52:58;;;;;;;4.10;1.75;;;;;;;7.62;54.62;99633.97;4953248;28;20040;-86
2024/01/05 00:55:26;;;;;;;5.20;1.85;;;;;;;7.61;54.30;99626.81;4946184;28;20120;-87
2024/01/05 00:57:54;;;;;;;7.13;2.00;;;;;;;7.59;54.21;99624.25;4956618;28;20046;-85
2024/01/05 01:00:24;;;;;;;6.85;1.90;;;;;;;7.57;54.53;99629.84;4945783;28;20043;-86
2024/01/05 01:02:54;;;;;;;5.43;1.77;;;;;;;7.62;54.38;99623.09;4955091;28;20597;-86
2024/01/05 01:05:22;;;;;;;5.93;1.70;;;;;;;7.59;54.26;99624.25;4940088;28;20130;-86
2024/01/05 01:07:50;;;;;;;4.82;1.58;;;;;;;7.59;54.41;99616.09;4944740;28;20035;-85
2024/01/05 01:10:19;;;;;;;6.25;1.90;;;;;;;7.59;54.43;99618.81;4957448;28;20055;-86
2024/01/05 01:12:47;;;;;;;6.93;2.33;;;;;;;7.56;54.65;99609.06;4968133;28;20046;-86
2024/01/05 01:15:15;;;;;;;7.13;1.92;;;;;;;7.57;54.43;99620.81;4958134;28;20050;-86
2024/01/05 01:17:44;;;;;;;5.88;1.60;;;;;;;7.58;54.41;99612.50;4970755;28;20078;-86
2024/01/05 01:20:13;;;;;;;7.63;1.92;;;;;;;7.61;54.76;99608.63;4947573;28;20043;-87
2024/01/05 01:22:42;;;;;;;7.05;1.88;;;;;;;7.60;54.50;99606.06;4968465;28;20055;-86
2024/01/05 01:25:10;;;;;;;5.10;1.80;;;;;;;7.58;54.42;99600.75;4952140;28;20051;-86
2024/01/05 01:27:37;;;;;;;4.97;1.80;;;;;;;7.60;54.44;99600.63;4973959;28;20046;-86
2024/01/05 01:30:08;;;;;;;6.57;2.00;;;;;;;7.60;54.33;99604.16;4960443;28;20495;-86
2024/01/05 01:32:36;;;;;;;5.13;1.90;;;;;;;7.60;54.34;99593.28;4972724;28;20047;-86
2024/01/05 01:35:05;;;;;;;4.95;1.75;;;;;;;7.57;54.50;99594.44;4949624;28;20566;-86
2024/01/05 01:37:34;;;;;;;7.47;2.20;;;;;;;7.61;54.69;99597.72;4950780;28;20469;-86
2024/01/05 01:40:04;;;;;;;4.30;1.80;;;;;;;7.58;54.33;99600.75;4971775;28;20043;-86
2024/01/05 01:42:36;;;;;;;7.72;2.00;;;;;;;7.55;54.62;99588.28;4954207;28;20073;-86
2024/01/05 01:45:05;;;;;;;7.07;2.00;;;;;;;7.57;54.31;99586.28;4949130;28;20043;-86
2024/01/05 01:47:34;;;;;;;7.32;1.70;;;;;;;7.57;54.46;99586.28;4950586;29;20043;-86
2024/01/05 01:50:02;;;;;;;5.65;1.70;;;;;;;7.56;54.58;99587.28;4952486;28;20050;-86
2024/01/05 01:52:31;;;;;;;5.15;1.90;;;;;;;7.57;54.47;99586.28;4974895;28;20039;-86
2024/01/05 01:55:00;;;;;;;4.88;1.80;;;;;;;7.59;54.28;99591.59;4970381;28;20059;-87
2024/01/05 01:57:29;;;;;;;6.05;1.95;;;;;;;7.57;54.38;99589.00;4958861;28;20039;-87
2024/01/05 01:59:57;;;;;;;5.55;1.65;;;;;;;7.56;54.68;99579.13;4959604;28;20078;-86
2024/01/05 02:02:26;;;;;;;3.85;1.70;;;;;;;7.56;54.52;99570.94;4958435;28;20074;-86
2024/01/05 02:04:54;;;;;;;4.30;1.52;;;;;;;7.56;54.67;99567.38;4947313;29;20035;-86
2024/01/05 02:07:23;;;;;;;6.68;1.92;;;;;;;7.57;54.45;99567.22;4955053;28;20153;-87
2024/01/05 02:09:51;;;;;;;7.25;1.98;;;;;;;7.55;54.72;99561.06;4938542;29;20051;-86
2024/01/05 02:12:21;;;;;;;4.60;1.95;;;;;;;7.57;54.37;99561.78;4947129;28;20654;-86
2024/01/05 02:14:49;;;;;;;8.30;2.13;;;;;;;7.54;54.48;99559.34;4971235;28;20050;-86
2024/01/05 02:17:31;;;;;;;6.25;2.00;;;;;;;7.57;54.85;99564.50;4951476;28;20039;-86
2024/01/05 02:20:00;;;;;;;6.60;1.90;;;;;;;7.55;54.62;99560.19;4946542;29;20051;-86
2024/01/05 02:22:30;;;;;;;6.05;2.10;;;;;;;7.55;54.53;99557.47;4944059;28;20035;-86
2024/01/05 02:25:00;;;;;;;5.15;2.00;;;;;;;7.55;54.69;99549.31;4956967;28;20557;-86
2024/01/05 02:27:28;;;;;;;7.97;2.28;;;;;;;7.55;54.91;99544.72;4952975;28;20044;-86
2024/01/05 02:29:56;;;;;;;7.35;2.40;;;;;;;7.56;54.69;99532.84;4942831;28;20047;-86
2024/01/05 02:32:26;;;;;;;4.35;1.98;;;;;;;7.56;54.82;99540.13;4963270;28;20034;-86
2024/01/05 02:34:58;;;;;;;5.07;1.90;;;;;;;7.56;54.58;99527.38;4975771;28;20051;-86
2024/01/05 02:37:26;;;;;;;4.55;1.70;;;;;;;7.57;54.43;99528.25;4956321;28;20039;-86
2024/01/05 02:39:54;;;;;;;6.43;1.70;;;;;;;7.57;54.70;99530.97;4968670;28;20043;-87
2024/01/05 02:42:24;;;;;;;5.32;1.70;;;;;;;7.59;54.16;99526.25;4963126;28;20535;-87
2024/01/05 02:44:52;;;;;;;7.45;1.80;;;;;;;7.56;54.60;99508.31;4956540;28;20047;-86
2024/01/05 02:47:20;;;;;;;7.47;1.90;;;;;;;7.58;54.24;99516.34;4964449;28;20235;-87
2024/01/05 02:49:48;;;;;;;6.47;2.00;;;;;;;7.56;54.52;99504.75;4968449;28;20525;-85
2024/01/05 02:52:16;;;;;;;5.35;2.03;;;;;;;7.54;54.38;99494.00;4951936;29;20051;-87
2024/01/05 02:54:45;;;;;;;6.90;2.35;;;;;;;7.54;54.53;99488.56;4944935;29;20094;-87
2024/01/05 02:57:13;;;;;;;5.53;2.53;;;;;;;7.55;54.53;99495.72;4952929;28;20043;-87
2024/01/05 02:59:43;;;;;;;7.80;2.10;;;;;;;7.56;54.31;99496.56;4945896;29;20043;-87
2024/01/05 03:02:11;;;;;;;7.30;3.00;;;;;;;7.53;54.58;99492.28;4950752;28;20055;-87
2024/01/05 03:04:43;;;;;;;8.27;1.95;;;;;;;7.56;54.34;99496.56;4947911;28;20046;-87
2024/01/05 03:07:11;;;;;;;6.78;1.70;;;;;;;7.52;54.64;99493.28;4963768;28;20051;-87
2024/01/05 03:09:39;;;;;;;6.03;1.75;;;;;;;7.54;54.45;99487.69;4943805;29;20098;-87
2024/01/05 03:12:08;;;;;;;5.72;2.00;;;;;;;7.52;54.39;99489.69;4944023;29;20047;-87
2024/01/05 03:14:36;;;;;;;8.05;2.15;;;;;;;7.52;54.25;99482.38;4941608;29;20050;-87
2024/01/05 03:17:05;;;;;;;5.82;2.38;;;;;;;7.54;54.53;99474.09;4979147;28;20554;-86
2024/01/05 03:19:33;;;;;;;4.22;2.20;;;;;;;7.53;54.18;99475.94;4975615;28;20046;-87
2024/01/05 03:22:02;;;;;;;5.32;1.88;;;;;;;7.53;54.03;99483.25;4974170;28;20047;-87
2024/01/05 03:24:30;;;;;;;6.25;1.60;;;;;;;7.51;54.06;99477.97;4957929;28;20047;-87
2024/01/05 03:26:58;;;;;;;4.57;1.77;;;;;;;7.53;54.37;99478.66;4956812;28;20042;-87
2024/01/05 03:29:26;;;;;;;5.75;2.00;;;;;;;7.54;54.33;99468.63;4960713;28;20051;-86
2024/01/05 03:31:54;;;;;;;5.47;1.70;;;;;;;7.52;54.38;99465.19;4949863;28;20122;-87
2024/01/05 03:34:24;;;;;;;5.25;1.70;;;;;;;7.55;54.31;99462.19;4958611;28;20047;-86
2024/01/05 03:36:52;;;;;;;5.18;1.85;;;;;;;7.50;54.00;99449.03;4959464;28;20046;-87
2024/01/05 03:39:20;;;;;;;4.72;1.67;;;;;;;7.51;54.19;99453.47;4968018;28;20406;-87
2024/01/05 03:41:48;;;;;;;5.07;1.83;;;;;;;7.51;53.86;99452.63;4963524;28;20043;-87
2024/01/05 03:44:20;;;;;;;3.03;1.60;;;;;;;7.49;54.06;99463.66;4958862;28;20093;-87
2024/01/05 03:46:48;;;;;;;3.63;1.50;;;;;;;7.50;54.02;99446.31;4956249;28;20046;-87
2024/01/05 03:49:17;;;;;;;4.05;1.63;;;;;;;7.51;54.15;99456.19;4966278;28;20042;-87
2024/01/05 03:51:47;;;;;;;5.15;1.88;;;;;;;7.50;53.94;99448.19;4955229;28;20046;-87
2024/01/05 03:54:15;;;;;;;6.22;1.85;;;;;;;7.48;54.25;99442.00;4958264;28;20105;-87
2024/01/05 03:56:46;;;;;;;5.35;1.80;;;;;;;7.48;54.23;99442.88;4966277;28;20054;-87
2024/01/05 03:59:15;;;;;;;4.95;1.60;;;;;;;7.49;53.88;99449.19;4974409;28;20046;-86
2024/01/05 04:01:44;;;;;;;4.97;1.90;;;;;;;7.50;53.95;99448.19;4946834;29;20043;-86
2024/01/05 04:04:12;;;;;;;4.70;1.73;;;;;;;7.49;53.72;99443.75;4968112;28;20077;-87
2024/01/05 04:06:42;;;;;;;6.35;1.90;;;;;;;7.47;54.19;99440.28;4968688;28;20050;-88
2024/01/05 04:09:12;;;;;;;4.72;1.92;;;;;;;7.51;53.88;99444.44;4975019;28;20094;-86
2024/01/05 04:11:40;;;;;;;6.05;2.05;;;;;;;7.50;53.76;99446.31;4975331;28;20057;-88
2024/01/05 04:14:09;;;;;;;4.82;1.85;;;;;;;7.49;54.02;99443.75;4957473;28;20106;-86
2024/01/05 04:16:37;;;;;;;6.22;1.85;;;;;;;7.51;54.30;99441.72;4963219;28;20059;-87
2024/01/05 04:19:05;;;;;;;6.47;1.77;;;;;;;7.51;54.34;99442.59;4958803;28;20046;-87
2024/01/05 04:21:37;;;;;;;4.45;1.83;;;;;;;7.54;54.08;99449.56;4951514;28;20054;-87
2024/01/05 04:24:08;;;;;;;6.40;2.15;;;;;;;7.52;53.89;99441.56;4971982;28;20077;-85
2024/01/05 04:26:38;;;;;;;6.85;2.30;;;;;;;7.56;53.95;99440.25;4946318;29;20051;-88
2024/01/05 04:29:06;;;;;;;5.00;1.63;;;;;;;7.56;54.22;99439.41;4950499;28;20050;-87
2024/01/05 04:31:34;;;;;;;4.68;1.88;;;;;;;7.57;54.49;99436.53;4963696;28;20050;-87
2024/01/05 04:34:03;;;;;;;5.85;1.70;;;;;;;7.58;53.95;99435.53;4942219;28;20075;-87
2024/01/05 04:36:31;;;;;;;5.00;1.60;;;;;;;7.62;54.04;99432.50;4961218;28;20043;-87
2024/01/05 04:39:00;;;;;;;6.68;2.13;;;;;;;7.61;54.16;99428.06;4940763;29;20052;-87
2024/01/05 04:41:29;;;;;;;6.65;2.30;;;;;;;7.62;54.07;99425.19;4967748;28;20049;-87
2024/01/05 04:43:58;;;;;;;3.40;1.60;;;;;;;7.65;54.02;99422.16;4955735;28;20063;-87
2024/01/05 04:46:26;;;;;;;5.07;1.77;;;;;;;7.64;53.88;99417.72;4959847;28;20047;-87
2024/01/05 04:48:54;;;;;;;4.80;1.90;;;;;;;7.64;53.81;99417.72;4956048;28;20097;-87
2024/01/05 04:51:23;;;;;;;3.97;1.50;;;;;;;7.67;54.07;99420.16;4953741;28;20039;-85
2024/01/05 04:53:50;;;;;;;5.25;1.52;;;;;;;7.68;54.04;99419.16;4974789;28;20058;-85
2024/01/05 04:56:21;;;;;;;4.30;1.30;;;;;;;7.69;54.07;99420.84;4958845;28;20050;-87
2024/01/05 04:58:49;;;;;;;3.95;1.30;;;;;;;7.72;53.85;99414.25;4968010;28;20069;-87
2024/01/05 05:01:19;;;;;;;4.85;1.70;;;;;;;7.72;53.68;99406.94;4969193;28;20055;-87
2024/01/05 05:03:47;;;;;;;5.28;1.95;;;;;;;7.72;54.37;99406.94;4943497;29;20043;-87
2024/01/05 05:06:16;;;;;;;9.20;2.65;;;;;;;7.72;53.99;99403.34;4950087;29;20508;-86
2024/01/05 05:08:44;;;;;;;6.03;1.90;;;;;;;7.72;54.11;99396.03;4954007;28;20038;-87
2024/01/05 05:11:12;;;;;;;5.78;2.03;;;;;;;7.76;54.02;99388.44;4962682;28;20568;-86
2024/01/05 05:13:40;;;;;;;3.92;1.90;;;;;;;7.75;53.95;99392.16;4960851;28;20819;-87
2024/01/05 05:16:08;;;;;;;4.55;1.65;;;;;;;7.75;54.18;99386.72;4956229;29;20043;-87
2024/01/05 05:18:38;;;;;;;6.85;2.00;;;;;;;7.78;53.96;99391.84;4949004;29;20043;-87
2024/01/05 05:21:07;;;;;;;4.50;1.83;;;;;;;7.78;54.16;99386.41;4967551;28;20051;-87
2024/01/05 05:23:37;;;;;;;5.53;2.13;;;;;;;7.77;54.20;99382.81;4956599;29;20051;-86
2024/01/05 05:26:06;;;;;;;4.15;1.95;;;;;;;7.79;53.73;99390.84;4984726;28;20059;-86
2024/01/05 05:28:35;;;;;;;6.45;1.80;;;;;;;7.79;53.69;99390.84;4974433;28;20105;-86
2024/01/05 05:31:03;;;;;;;3.83;2.00;;;;;;;7.79;53.63;99377.22;4992793;28;20596;-87
2024/01/05 05:33:32;;;;;;;5.15;1.60;;;;;;;7.79;53.59;99369.06;4980475;28;20046;-87
2024/01/05 05:36:02;;;;;;;3.55;1.67;;;;;;;7.81;53.59;99372.50;4981653;28;20151;-87
2024/01/05 05:38:30;;;;;;;5.05;1.77;;;;;;;7.78;53.59;99367.34;4969473;28;20039;-86
2024/01/05 05:40:58;;;;;;;6.82;1.60;;;;;;;7.78;53.95;99359.16;4978793;28;20046;-87
2024/01/05 05:43:27;;;;;;;5.57;1.83;;;;;;;7.80;53.43;99370.78;4974254;28;20067;-86
2024/01/05 05:45:55;;;;;;;4.70;1.50;;;;;;;7.79;53.58;99358.16;4975549;28;20039;-86
2024/01/05 05:48:23;;;;;;;4.78;1.70;;;;;;;7.79;53.41;99355.44;4976909;28;20085;-86
2024/01/05 05:50:52;;;;;;;5.28;1.42;;;;;;;7.77;53.66;99349.28;4990520;28;20054;-87
2024/01/05 05:53:21;;;;;;;5.90;1.83;;;;;;;7.77;53.43;99341.09;4971947;28;20119;-87
2024/01/05 05:55:49;;;;;;;5.47;2.13;;;;;;;7.76;53.52;99353.91;4972333;28;20043;-87
2024/01/05 05:58:17;;;;;;;4.82;1.90;;;;;;;7.76;53.53;99345.72;4972992;28;20065;-87
2024/01/05 06:00:45;;;;;;;3.95;1.40;;;;;;;7.73;53.70;99337.84;4954119;28;20051;-86
2024/01/05 06:03:14;;;;;;;4.65;1.60;;;;;;;7.73;53.15;99340.56;4959533;28;20047;-86
2024/01/05 06:05:42;;;;;;;5.30;1.63;;;;;;;7.73;53.42;99337.00;4969191;28;20058;-87
2024/01/05 06:08:10;;;;;;;4.40;1.50;;;;;;;7.72;53.30;99336.13;4948819;28;20039;-86
2024/01/05 06:10:39;;;;;;;6.13;2.00;;;;;;;7.73;53.24;99337.00;4955615;28;20122;-86
2024/01/05 06:13:08;;;;;;;4.15;1.60;;;;;;;7.71;53.46;99345.31;4968238;28;20055;-86
2024/01/05 06:15:36;;;;;;;4.07;1.70;;;;;;;7.71;53.55;99333.56;4943839;28;20085;-86
2024/01/05 06:18:05;;;;;;;3.80;1.50;;;;;;;7.69;53.04;99336.44;4945964;28;20252;-86
2024/01/05 06:20:33;;;;;;;5.75;1.90;;;;;;;7.67;53.09;99337.63;4956759;28;20061;-86
2024/01/05 06:23:01;;;;;;;6.78;2.05;;;;;;;7.69;53.41;99338.28;4971448;28;20511;-87
2024/01/05 06:25:31;;;;;;;3.95;1.45;;;;;;;7.66;53.18;99322.28;4969611;28;20046;-87
2024/01/05 06:28:00;;;;;;;6.13;1.88;;;;;;;7.69;52.93;99341.88;4971021;28;20047;-86
2024/01/05 06:30:28;;;;;;;5.03;1.70;;;;;;;7.65;53.00;99335.03;4937430;29;20078;-87
2024/01/05 06:32:56;;;;;;;4.05;1.77;;;;;;;7.65;53.29;99340.47;4955438;28;20059;-86
2024/01/05 06:35:25;;;;;;;5.55;1.88;;;;;;;7.65;53.47;99334.19;4956393;28;20110;-87
2024/01/05 06:37:53;;;;;;;5.07;1.80;;;;;;;7.64;53.19;99349.66;4969162;28;20507;-86
2024/01/05 06:40:22;;;;;;;4.15;2.13;;;;;;;7.62;53.19;99340.78;4948057;28;20381;-87
2024/01/05 06:42:50;;;;;;;6.20;2.10;;;;;;;7.63;53.45;99334.31;4968470;28;20050;-87
2024/01/05 06:45:19;;;;;;;5.50;1.85;;;;;;;7.64;53.30;99340.63;4972819;28;20117;-86
2024/01/05 06:47:50;;;;;;;4.82;2.15;;;;;;;7.67;52.86;99351.22;4960929;28;20620;-87
2024/01/05 06:50:19;;;;;;;5.63;2.45;;;;;;;7.63;53.34;99361.56;4957947;28;20150;-86
2024/01/05 06:52:50;;;;;;;6.25;2.35;;;;;;;7.67;52.94;99356.69;4959176;29;20035;-87
2024/01/05 06:55:19;;;;;;;5.57;2.00;;;;;;;7.64;53.40;99346.94;4959522;28;20138;-87
2024/01/05 06:57:48;;;;;;;5.80;1.90;;;;;;;7.67;53.18;99348.50;4975820;28;20043;-86
2024/01/05 07:00:17;;;;;;;4.38;1.80;;;;;;;7.65;53.13;99343.22;4956867;28;20043;-86
2024/01/05 07:02:46;;;;;;;5.75;2.00;;;;;;;7.67;53.36;99349.38;4954972;28;20043;-87
2024/01/05 07:05:15;;;;;;;4.30;1.42;;;;;;;7.69;52.88;99350.03;4959100;28;20462;-86
2024/01/05 07:07:43;;;;;;;4.82;1.70;;;;;;;7.71;53.43;99353.47;4959258;28;20046;-87
2024/01/05 07:10:11;;;;;;;6.15;1.58;;;;;;;7.73;53.29;99356.06;4956398;28;20525;-87
2024/01/05 07:12:39;;;;;;;5.07;1.55;;;;;;;7.72;52.90;99347.03;4956599;28;20038;-87
2024/01/05 07:15:08;;;;;;;4.93;1.70;;;;;;;7.74;53.15;99352.31;4968827;28;20046;-85
2024/01/05 07:17:36;;;;;;;4.55;1.90;;;;;;;7.77;53.27;99344.69;4966402;28;20089;-86
2024/01/05 07:20:07;;;;;;;6.40;1.77;;;;;;;7.80;52.89;99351.72;4955863;28;20054;-86
2024/01/05 07:22:35;;;;;;;3.80;1.50;;;;;;;7.81;52.79;99350.69;4970450;28;20065;-86
2024/01/05 07:25:03;;;;;;;3.38;1.38;;;;;;;7.78;52.87;99351.00;4958970;28;20109;-87
2024/01/05 07:27:32;;;;;;;3.50;1.40;;;;;;;7.79;52.89;99350.84;4947392;28;20054;-87
2024/01/05 07:30:00;;;;;;;2.85;1.20;;;;;;;7.83;53.01;99363.16;4957769;28;20117;-86
2024/01/05 07:32:28;;;;;;;4.20;1.40;;;;;;;7.84;52.41;99353.13;4957958;28;20068;-86
2024/01/05 07:34:57;;;;;;;3.75;1.25;;;;;;;7.85;52.61;99358.41;4959198;28;20039;-87
2024/01/05 07:37:26;;;;;;;3.42;1.20;;;;;;;7.88;52.42;99357.25;4960232;28;20487;-85
2024/01/05 07:39:54;;;;;;;3.33;1.30;;;;;;;7.86;52.67;99346.50;4975865;28;20498;-87
2024/01/05 07:42:22;;;;;;;4.72;1.38;;;;;;;7.90;52.17;99356.09;4968226;28;20410;-87
2024/01/05 07:44:51;;;;;;;2.72;1.10;;;;;;;7.90;52.56;99366.13;4974886;28;20049;-87
2024/01/05 07:47:19;;;;;;;2.15;1.10;;;;;;;7.90;52.48;99357.97;4975770;28;20047;-87
2024/01/05 07:49:47;;;;;;;3.55;1.00;;;;;;;7.90;52.38;99361.53;4952921;29;20066;-86
2024/01/05 07:52:16;;;;;;;3.65;1.17;;;;;;;7.92;52.47;99369.56;4955373;28;20406;-87
2024/01/05 07:54:45;;;;;;;3.38;1.30;;;;;;;7.96;51.86;99368.22;4958805;28;20051;-86
2024/01/05 07:57:14;;;;;;;4.75;1.42;;;;;;;7.94;52.23;99365.66;4958737;28;20570;-87
2024/01/05 07:59:42;;;;;;;3.88;1.23;;;;;;;7.99;52.39;99380.69;4950310;28;20043;-87
2024/01/05 08:02:11;;;;;;;3.95;1.23;;;;;;;7.98;51.84;99379.84;4967815;28;20380;-86
2024/01/05 08:04:39;;;;;;;2.75;1.15;;;;;;;8.00;52.14;99383.28;4951910;28;20110;-85
2024/01/05 08:07:08;;;;;;;3.22;1.13;;;;;;;8.00;51.96;99388.72;4958758;28;20043;-86
2024/01/05 08:09:36;;;;;;;2.83;1.02;;;;;;;8.03;52.04;99390.25;4948724;29;20043;-84
2024/01/05 08:12:05;;;;;;;4.10;1.42;;;;;;;8.03;51.60;99387.53;4955151;28;20066;-84
2024/01/05 08:14:33;;;;;;;2.58;1.02;;;;;;;8.05;52.00;99390.97;4951404;28;20081;-86
2024/01/05 08:17:02;;;;;;;3.90;1.20;;;;;;;8.05;51.95;99386.38;4973272;28;20061;-86
2024/01/05 08:19:30;;;;;;;2.78;1.40;;;;;;;8.06;51.35;99388.09;4968181;28;20372;-86
2024/01/05 08:21:58;;;;;;;4.50;1.27;;;;;;;8.05;51.55;99378.19;4954894;28;20045;-87
2024/01/05 08:24:27;;;;;;;2.40;0.80;;;;;;;8.07;51.72;99380.78;4949892;28;20109;-86
2024/01/05 08:26:55;;;;;;;2.53;1.02;;;;;;;8.06;51.43;99377.19;4976459;28;20158;-86
2024/01/05 08:29:24;;;;;;;2.53;0.82;;;;;;;8.10;51.03;99380.44;4960248;28;20053;-85
2024/01/05 08:31:53;;;;;;;3.03;1.20;;;;;;;8.09;51.31;99378.78;4966306;28;20043;-87
2024/01/05 08:34:22;;;;;;;3.67;0.95;;;;;;;8.07;51.31;99384.38;4955185;28;20043;-87
2024/01/05 08:36:50;;;;;;;3.35;1.00;;;;;;;8.10;51.34;99391.34;4950649;28;20046;-86
2024/01/05 08:39:18;;;;;;;1.92;0.88;;;;;;;8.13;50.90;99399.22;4957803;28;20047;-86
2024/01/05 08:41:46;;;;;;;3.38;0.95;;;;;;;8.14;50.82;99398.25;4954553;28;20487;-86
2024/01/05 08:44:15;;;;;;;2.03;1.00;;;;;;;8.14;51.25;99400.97;4955243;28;20045;-84
2024/01/05 08:46:44;;;;;;;3.85;1.10;;;;;;;8.13;50.92;99397.41;4953360;28;20054;-86
2024/01/05 08:49:12;;;;;;;1.92;0.77;;;;;;;8.11;50.42;99388.47;4954395;29;20110;-86
2024/01/05 08:51:42;;;;;;;1.23;0.63;;;;;;;8.15;50.37;99405.44;4967218;28;20050;-86
2024/01/05 08:54:10;;;;;;;1.88;0.55;;;;;;;8.13;50.34;99399.22;4954747;28;20051;-86
2024/01/05 08:56:39;;;;;;;1.67;0.70;;;;;;;8.12;50.00;99408.41;4958475;28;20070;-87
2024/01/05 08:59:07;;;;;;;1.38;0.57;;;;;;;8.14;49.68;99409.16;4950802;28;20101;-87
2024/01/05 09:01:34;;;;;;;0.88;0.45;;;;;;;8.11;49.70;99396.66;4965549;28;20043;-86
2024/01/05 09:04:10;;;;;;;0.93;0.40;;;;;;;8.14;49.28;99417.31;4955193;28;20339;-86
2024/01/05 09:06:38;;;;;;;1.52;0.45;;;;;;;8.11;49.44;99418.44;4942961;29;20059;-87
2024/01/05 09:09:10;;;;;;;1.25;0.50;;;;;;;8.14;49.42;99420.91;4954328;28;20051;-86
2024/01/05 09:11:41;;;;;;;1.13;0.50;;;;;;;8.13;49.25;99427.38;4949445;28;20043;-86
2024/01/05 09:14:10;;;;;;;1.67;0.52;;;;;;;8.12;49.02;99428.34;4953639;28;20514;-87
2024/01/05 09:16:38;;;;;;;0.60;0.50;;;;;;;8.14;48.76;99439.13;4970968;28;20039;-86
2024/01/05 09:19:08;;;;;;;0.57;0.43;;;;;;;8.13;48.65;99429.19;4970905;28;20047;-86
2024/01/05 09:21:36;;;;;;;0.85;0.40;;;;;;;8.12;48.54;99436.53;4951525;28;20071;-87
2024/01/05 09:24:05;;;;;;;2.20;0.50;;;;;;;8.13;48.66;99435.53;4969289;28;20047;-86
2024/01/05 09:26:33;;;;;;;0.40;0.30;;;;;;;8.14;48.74;99445.44;4955625;28;20043;-86
2024/01/05 09:29:01;;;;;;;0.43;0.35;;;;;;;8.14;48.62;99429.09;4946200;28;20043;-86
2024/01/05 09:31:29;;;;;;;0.35;0.30;;;;;;;8.13;48.22;99440.09;4955613;28;20054;-86
2024/01/05 09:34:00;;;;;;;0.73;0.35;;;;;;;8.15;47.87;99438.97;4961703;28;20031;-86
2024/01/05 09:36:29;;;;;;;0.80;0.50;;;;;;;8.13;48.26;99441.00;4972370;28;20411;-87
2024/01/05 09:38:57;;;;;;;1.35;0.30;;;;;;;8.14;48.27;99447.31;4953911;28;20050;-86
2024/01/05 09:41:28;;;;;;;1.02;0.30;;;;;;;8.14;48.18;99453.63;4965562;28;20098;-87
2024/01/05 09:44:00;;;;;;;1.10;0.47;;;;;;;8.15;48.14;99440.84;4968106;28;20047;-86
2024/01/05 09:46:29;;;;;;;1.35;0.40;;;;;;;8.12;48.14;99449.28;4958601;28;20510;-84
2024/01/05 09:48:58;;;;;;;0.57;0.30;;;;;;;8.14;47.67;99447.31;4951188;29;20074;-85
2024/01/05 09:51:32;;;;;;;1.08;0.40;;;;;;;8.15;47.61;99444.44;4972272;28;20035;-85
2024/01/05 09:54:00;;;;;;;0.95;0.43;;;;;;;8.14;47.71;99450.88;4970210;28;20042;-86
2024/01/05 09:56:29;;;;;;;0.57;0.40;;;;;;;8.16;47.78;99457.06;4946121;28;20050;-84
2024/01/05 09:59:00;;;;;;;0.35;0.35;;;;;;;8.15;47.86;99447.16;4946670;29;20059;-86
2024/01/05 10:01:30;;;;;;;1.05;0.40;;;;;;;8.15;47.79;99458.06;4946385;28;20078;-85
2024/01/05 10:04:01;;;;;;;0.47;0.40;;;;;;;8.15;47.59;99447.16;4947265;28;20035;-84
2024/01/05 10:06:32;;;;;;;0.80;0.40;;;;;;;8.15;47.38;99458.06;4952482;28;20039;-86
2024/01/05 10:09:01;;;;;;;0.60;0.40;;;;;;;8.15;47.01;99468.97;4965350;28;20053;-86
2024/01/05 10:11:30;;;;;;;1.65;0.50;;;;;;;8.16;47.23;99448.03;4953174;28;20043;-85
2024/01/05 10:14:05;;;;;;;0.65;0.43;;;;;;;8.14;47.22;99452.75;4952642;28;20055;-85
2024/01/05 10:16:38;;;;;;;0.60;0.40;;;;;;;8.13;47.04;99457.34;4961665;28;20066;-86
2024/01/05 10:19:12;;;;;;;1.13;0.50;;;;;;;8.16;46.64;99461.66;4956837;28;20058;-85
2024/01/05 10:21:43;;;;;;;0.95;0.52;;;;;;;8.14;47.00;99467.25;4941073;28;20035;-85
2024/01/05 10:24:22;;;;;;;1.85;0.50;;;;;;;8.15;45.98;99455.34;4957858;28;20066;-87
2024/01/05 10:27:02;;;;;;;0.63;0.40;;;;;;;8.13;45.67;99460.06;4958465;28;20089;-86
2024/01/05 10:29:31;;;;;;;1.30;0.50;;;;;;;8.13;47.08;99465.53;4951300;28;20049;-86
2024/01/05 10:32:11;;;;;;;1.35;0.50;;;;;;;8.15;45.88;99460.78;4960012;28;20117;-86
2024/01/05 10:34:40;;;;;;;1.45;0.60;;;;;;;8.11;46.90;99456.59;4958032;28;20042;-85
2024/01/05 10:37:11;;;;;;;1.58;0.60;;;;;;;8.15;46.63;99459.91;4961522;28;20035;-86
2024/01/05 10:39:40;;;;;;;1.38;0.60;;;;;;;8.13;46.78;99451.91;4958097;28;20129;-86
2024/01/05 10:42:22;;;;;;;2.92;0.68;;;;;;;8.14;45.32;99464.50;4960523;28;20481;-86
2024/01/05 10:44:52;;;;;;;1.98;0.57;;;;;;;8.11;46.87;99466.63;4942504;29;20126;-86
2024/01/05 10:47:21;;;;;;;1.88;0.70;;;;;;;8.12;46.88;99471.94;4966568;28;20071;-87
2024/01/05 10:49:51;;;;;;;1.55;0.57;;;;;;;8.13;46.41;99462.78;4951875;28;20110;-88
2024/01/05 10:52:22;;;;;;;1.08;0.70;;;;;;;8.13;46.33;99465.53;4962062;28;20066;-88
2024/01/05 10:54:52;;;;;;;1.58;0.70;;;;;;;8.12;46.59;99458.31;4950047;28;20083;-87
2024/01/05 10:57:23;;;;;;;1.52;0.73;;;;;;;8.12;46.32;99461.03;4956850;28;20134;-87
2024/01/05 10:59:54;;;;;;;1.35;0.70;;;;;;;8.10;46.57;99454.88;4961146;28;20134;-88
2024/01/05 11:02:33;;;;;;;1.45;0.68;;;;;;;8.14;45.40;99467.25;4965305;28;20066;-87
2024/01/05 11:05:08;;;;;;;1.38;0.82;;;;;;;8.12;45.63;99471.09;4958208;28;20125;-87
2024/01/05 11:07:41;;;;;;;2.03;0.80;;;;;;;8.11;46.11;99466.63;4973790;28;20047;-87
2024/01/05 11:10:23;;;;;;;2.17;0.80;;;;;;;8.09;45.45;99475.00;4953022;28;20563;-86
2024/01/05 11:13:27;;;;;;;2.33;0.90;;;;;;;8.07;44.58;99468.84;4969212;28;20043;-86
2024/01/05 11:16:20;;;;;;;3.13;0.80;;;;;;;8.08;44.97;99464.25;4952170;28;20232;-86
2024/01/05 11:19:18;;;;;;;1.63;0.90;;;;;;;8.09;45.14;99468.69;4944233;28;20051;-86
2024/01/05 11:21:52;;;;;;;2.33;0.90;;;;;;;8.08;45.88;99470.56;4956481;28;20109;-87
2024/01/05 11:24:23;;;;;;;1.83;0.90;;;;;;;8.09;46.11;99466.81;4965223;28;20058;-87
2024/01/05 11:26:51;;;;;;;2.40;0.80;;;;;;;8.07;46.23;99467.97;4959468;28;20136;-87
2024/01/05 11:29:49;;;;;;;2.75;0.90;;;;;;;8.09;44.46;99465.97;4952867;28;20047;-87
2024/01/05 11:32:34;;;;;;;1.88;0.82;;;;;;;8.08;44.47;99465.09;4977105;28;20051;-86
2024/01/05 11:35:04;;;;;;;2.22;0.90;;;;;;;8.07;45.94;99449.75;4962379;28;20051;-87
2024/01/05 11:37:33;;;;;;;1.25;0.52;;;;;;;8.06;46.00;99444.44;4954796;28;20070;-87
2024/01/05 11:40:03;;;;;;;2.00;0.90;;;;;;;8.07;46.03;99449.75;4951566;28;20051;-87
2024/01/05 11:42:33;;;;;;;2.08;0.90;;;;;;;8.09;45.86;99438.72;4969787;28;20533;-87
2024/01/05 11:45:02;;;;;;;1.10;0.70;;;;;;;8.09;46.00;99425.94;4950781;28;20153;-88
2024/01/05 11:47:44;;;;;;;2.10;0.82;;;;;;;8.11;45.27;99420.31;4971652;28;20407;-87
2024/01/05 11:50:27;;;;;;;2.13;0.90;;;;;;;8.11;44.36;99439.38;4953433;28;20043;-87
2024/01/05 11:53:13;;;;;;;2.28;0.85;;;;;;;8.06;44.65;99423.53;4954470;28;20069;-88